createdAt,value
2022-08-19T00:01:37.828Z,57.29
2022-08-19T00:04:41.386Z,57.45
2022-08-19T00:07:45.018Z,57.47
2022-08-19T00:10:48.870Z,57.35
2022-08-19T00:13:53.277Z,57.42
2022-08-19T00:16:56.851Z,57.40
2022-08-19T00:20:00.237Z,57.42
2022-08-19T00:23:05.070Z,57.29
2022-08-19T00:26:09.639Z,57.39
2022-08-19T00:29:16.771Z,57.50
2022-08-19T00:32:19.885Z,57.58
2022-08-19T00:35:23.190Z,57.37
2022-08-19T00:38:35.104Z,57.22
2022-08-19T00:41:42.039Z,57.45
2022-08-19T00:44:47.247Z,57.09
2022-08-19T00:47:50.236Z,57.18
2022-08-19T00:50:56.596Z,57.34
2022-08-19T00:54:01.769Z,57.02
2022-08-19T00:57:08.802Z,57.41
2022-08-19T01:00:16.750Z,57.11
2022-08-19T01:03:22.226Z,57.41
2022-08-19T01:06:25.311Z,57.20
2022-08-19T01:09:28.306Z,57.17
2022-08-19T01:12:31.896Z,57.23
2022-08-19T01:15:42.242Z,57.21
2022-08-19T01:18:45.370Z,57.52
2022-08-19T01:21:55.590Z,57.36
2022-08-19T01:25:00.117Z,57.42
2022-08-19T01:28:10.632Z,57.27
2022-08-19T01:31:27.409Z,57.18
2022-08-19T01:34:30.879Z,57.22
2022-08-19T01:37:44.763Z,57.09
2022-08-19T01:40:49.526Z,57.07
2022-08-19T01:44:17.109Z,57.08
2022-08-19T01:47:17.138Z,57.13
2022-08-19T01:50:20.174Z,57.46
2022-08-19T01:53:30.529Z,57.18
2022-08-19T01:56:39.258Z,57.12
2022-08-19T01:59:44.983Z,57.26
2022-08-19T02:02:48.852Z,57.25
2022-08-19T02:05:57.129Z,57.20
2022-08-19T02:09:00.149Z,57.31
2022-08-19T02:12:05.161Z,57.18
2022-08-19T02:15:09.068Z,57.10
2022-08-19T02:18:12.291Z,57.16
2022-08-19T02:21:15.866Z,57.22
2022-08-19T02:24:18.895Z,57.13
2022-08-19T02:27:23.654Z,57.43
2022-08-19T02:30:27.033Z,57.36
2022-08-19T02:33:30.283Z,57.18
2022-08-19T02:36:33.346Z,57.60
2022-08-19T02:39:35.493Z,57.50
2022-08-19T02:42:40.538Z,57.64
2022-08-19T02:45:43.718Z,57.43
2022-08-19T02:48:46.988Z,57.35
2022-08-19T02:51:50.194Z,57.58
2022-08-19T02:54:53.166Z,57.31
2022-08-19T02:57:58.062Z,57.32
2022-08-19T03:01:01.260Z,57.45
2022-08-19T03:04:07.083Z,57.45
2022-08-19T03:07:11.418Z,57.54
2022-08-19T03:10:15.167Z,57.30
2022-08-19T03:13:20.278Z,57.34
2022-08-19T03:16:25.443Z,57.34
2022-08-19T03:19:28.693Z,57.41
2022-08-19T03:22:31.734Z,57.31
2022-08-19T03:25:39.925Z,57.58
2022-08-19T03:28:51.138Z,57.69
2022-08-19T03:32:04.639Z,57.49
2022-08-19T03:35:08.518Z,57.51
2022-08-19T03:38:11.574Z,57.55
2022-08-19T03:41:17.807Z,57.34
2022-08-19T03:44:23.986Z,57.41
2022-08-19T03:47:27.008Z,57.43
2022-08-19T03:50:30.577Z,57.51
2022-08-19T03:53:34.906Z,57.24
2022-08-19T03:56:40.125Z,57.30
2022-08-19T03:59:45.102Z,57.39
2022-08-19T04:02:58.266Z,57.39
2022-08-19T04:06:11.987Z,57.36
2022-08-19T04:09:15.409Z,57.71
2022-08-19T04:12:18.563Z,57.55
2022-08-19T04:15:22.919Z,57.51
2022-08-19T04:18:26.546Z,57.47
2022-08-19T04:21:30.578Z,57.41
2022-08-19T04:24:34.006Z,57.37
2022-08-19T04:27:37.105Z,57.26
2022-08-19T04:30:43.254Z,57.56
2022-08-19T04:33:46.382Z,57.46
2022-08-19T04:36:51.773Z,57.45
2022-08-19T04:40:12.427Z,57.45
2022-08-19T04:43:16.685Z,57.46
2022-08-19T04:46:39.036Z,57.61
2022-08-19T04:49:43.526Z,57.47
2022-08-19T04:52:46.591Z,57.57
2022-08-19T04:55:49.642Z,57.33
2022-08-19T04:58:52.995Z,57.43
2022-08-19T05:01:57.337Z,57.27
2022-08-19T05:05:02.033Z,57.47
2022-08-19T05:08:05.299Z,57.33
2022-08-19T05:11:12.138Z,57.07
2022-08-19T05:14:17.317Z,57.51
2022-08-19T05:17:27.691Z,57.43
2022-08-19T05:20:49.577Z,57.42
2022-08-19T05:23:52.557Z,57.24
2022-08-19T05:26:57.664Z,57.62
2022-08-19T05:30:01.034Z,57.49
2022-08-19T05:33:05.591Z,57.80
2022-08-19T05:36:09.306Z,57.60
2022-08-19T05:39:16.789Z,57.67
2022-08-19T05:42:21.062Z,57.58
2022-08-19T05:45:24.005Z,57.77
2022-08-19T05:48:28.698Z,58.13
2022-08-19T05:51:32.419Z,57.90
2022-08-19T05:54:36.904Z,58.43
2022-08-19T05:57:40.153Z,58.38
2022-08-19T06:00:45.311Z,58.43
2022-08-19T06:03:49.808Z,58.30
2022-08-19T06:06:54.772Z,58.22
2022-08-19T06:10:01.028Z,58.19
2022-08-19T06:13:06.720Z,58.41
2022-08-19T06:16:09.762Z,58.58
2022-08-19T06:19:16.900Z,58.57
2022-08-19T06:22:19.943Z,58.85
2022-08-19T06:25:23.890Z,58.99
2022-08-19T06:28:28.893Z,59.30
2022-08-19T06:31:34.692Z,59.23
2022-08-19T06:34:39.158Z,59.72
2022-08-19T06:37:43.981Z,59.90
2022-08-19T06:40:46.984Z,59.64
2022-08-19T06:43:50.158Z,59.51
2022-08-19T06:46:57.722Z,59.06
2022-08-19T06:50:05.254Z,59.20
2022-08-19T06:53:08.661Z,59.63
2022-08-19T06:56:11.699Z,59.53
2022-08-19T06:59:17.482Z,59.56
2022-08-19T07:02:21.827Z,59.93
2022-08-19T07:05:26.773Z,60.03
2022-08-19T07:08:29.948Z,59.88
2022-08-19T07:11:34.168Z,60.10
2022-08-19T07:14:40.542Z,59.91
2022-08-19T07:17:44.512Z,60.19
2022-08-19T07:20:49.837Z,60.13
2022-08-19T07:23:53.558Z,60.07
2022-08-19T07:27:01.319Z,60.02
2022-08-19T07:30:06.606Z,60.37
2022-08-19T07:33:09.694Z,60.24
2022-08-19T07:36:15.886Z,60.51
2022-08-19T07:39:22.047Z,60.23
2022-08-19T07:42:25.117Z,60.27
2022-08-19T07:45:29.378Z,60.41
2022-08-19T07:48:32.538Z,60.00
2022-08-19T07:51:37.353Z,60.17
2022-08-19T07:54:41.620Z,60.57
2022-08-19T08:00:53.214Z,60.15
2022-08-19T08:04:14.930Z,60.05
2022-08-19T08:07:36.974Z,59.98
2022-08-19T08:10:40.101Z,60.07
2022-08-19T08:13:45.729Z,60.03
2022-08-19T08:16:48.970Z,60.04
2022-08-19T08:19:52.173Z,60.27
2022-08-19T08:23:14.039Z,60.25
2022-08-19T08:26:19.382Z,60.21
2022-08-19T08:29:22.466Z,60.46
2022-08-19T08:32:29.121Z,60.10
2022-08-19T08:35:32.156Z,60.08
2022-08-19T08:38:41.494Z,60.20
2022-08-19T08:41:53.685Z,60.71
2022-08-19T08:45:02.244Z,60.39
2022-08-19T08:48:22.502Z,60.08
2022-08-19T08:51:34.926Z,60.08
2022-08-19T08:54:48.751Z,60.13
2022-08-19T08:58:03.223Z,60.12
2022-08-19T09:01:06.500Z,60.32
2022-08-19T09:04:09.826Z,60.57
2022-08-19T09:07:35.294Z,60.42
2022-08-19T09:10:47.021Z,60.63
2022-08-19T09:14:04.420Z,60.60
2022-08-19T09:17:08.946Z,60.07
2022-08-19T09:20:19.876Z,60.10
2022-08-19T09:23:26.774Z,60.47
2022-08-19T09:26:47.133Z,60.47
2022-08-19T09:29:51.781Z,60.51
2022-08-19T09:32:58.021Z,60.39
2022-08-19T09:36:08.413Z,60.50
2022-08-19T09:39:14.798Z,60.42
2022-08-19T09:42:30.442Z,60.41
2022-08-19T09:45:38.446Z,60.37
2022-08-19T09:48:42.080Z,60.33
2022-08-19T09:51:50.342Z,60.25
2022-08-19T09:54:54.490Z,60.45
2022-08-19T09:57:59.256Z,60.58
2022-08-19T10:01:03.483Z,60.46
2022-08-19T10:04:19.845Z,60.53
2022-08-19T10:07:23.337Z,60.52
2022-08-19T10:10:39.121Z,60.42
2022-08-19T10:13:48.141Z,60.67
2022-08-19T10:16:52.875Z,60.49
2022-08-19T10:19:56.302Z,60.85
2022-08-19T10:23:00.185Z,60.95
2022-08-19T10:26:04.239Z,61.27
2022-08-19T10:29:09.347Z,61.52
2022-08-19T10:32:12.695Z,61.22
2022-08-19T10:35:21.701Z,61.24
2022-08-19T10:38:31.425Z,61.09
2022-08-19T10:41:38.731Z,61.44
2022-08-19T10:44:43.454Z,61.44
2022-08-19T10:47:47.716Z,61.26
2022-08-19T10:51:07.934Z,61.43
2022-08-19T10:54:12.724Z,61.47
2022-08-19T10:57:16.013Z,61.54
2022-08-19T11:00:21.815Z,61.27
2022-08-19T11:03:25.685Z,61.33
2022-08-19T11:06:28.814Z,61.33
2022-08-19T11:09:34.225Z,61.08
2022-08-19T11:12:40.158Z,61.45
2022-08-19T11:15:45.066Z,61.35
2022-08-19T11:18:50.624Z,61.54
2022-08-19T11:21:55.287Z,61.32
2022-08-19T11:25:00.725Z,61.37
2022-08-19T11:28:03.908Z,61.20
2022-08-19T11:31:12.556Z,61.41
2022-08-19T11:34:18.503Z,60.99
2022-08-19T11:37:21.781Z,61.29
2022-08-19T11:40:24.851Z,61.66
2022-08-19T11:43:28.587Z,61.46
2022-08-19T11:46:33.426Z,61.28
2022-08-19T11:49:37.244Z,61.07
2022-08-19T11:52:40.273Z,61.37
2022-08-19T11:55:44.196Z,61.33
2022-08-19T11:58:47.758Z,61.24
2022-08-19T12:01:52.297Z,61.36
2022-08-19T12:04:57.754Z,61.48
2022-08-19T12:08:00.766Z,61.33
2022-08-19T12:11:04.126Z,61.35
2022-08-19T12:14:07.618Z,61.42
2022-08-19T12:17:12.386Z,61.36
2022-08-19T12:20:18.076Z,61.18
2022-08-19T12:23:21.154Z,61.33
2022-08-19T12:26:25.389Z,61.63
2022-08-19T12:29:29.409Z,61.30
2022-08-19T12:32:33.871Z,61.22
2022-08-19T12:35:37.381Z,61.25
2022-08-19T12:38:41.101Z,61.26
2022-08-19T12:41:54.009Z,61.33
2022-08-19T12:44:58.555Z,61.30
2022-08-19T12:48:32.966Z,61.26
2022-08-19T12:51:27.909Z,61.55
2022-08-19T12:54:31.607Z,61.66
2022-08-19T12:57:36.585Z,61.58
2022-08-19T13:00:39.631Z,61.68
2022-08-19T13:03:44.602Z,61.89
2022-08-19T13:06:47.607Z,61.94
2022-08-19T13:09:53.497Z,62.08
2022-08-19T13:12:57.326Z,62.21
2022-08-19T13:16:04.293Z,62.29
2022-08-19T13:19:09.006Z,62.11
2022-08-19T13:22:15.036Z,62.31
2022-08-19T13:25:20.511Z,62.58
2022-08-19T13:28:28.986Z,62.60
2022-08-19T13:31:51.663Z,62.76
2022-08-19T13:34:56.045Z,62.63
2022-08-19T13:37:59.087Z,62.48
2022-08-19T13:41:11.111Z,62.51
2022-08-19T13:44:19.066Z,62.64
2022-08-19T13:47:22.086Z,62.80
2022-08-19T13:50:28.294Z,63.02
2022-08-19T13:53:32.554Z,63.10
2022-08-19T13:56:35.605Z,63.34
2022-08-19T13:59:38.870Z,63.29
2022-08-19T14:02:42.397Z,62.98
2022-08-19T14:05:47.674Z,62.99
2022-08-19T14:08:51.033Z,62.95
2022-08-19T14:11:53.985Z,63.02
2022-08-19T14:14:57.311Z,62.91
2022-08-19T14:18:00.656Z,63.01
2022-08-19T14:21:05.647Z,63.30
2022-08-19T14:24:09.450Z,63.33
2022-08-19T14:27:12.435Z,63.26
2022-08-19T14:30:17.898Z,63.31
2022-08-19T14:33:20.861Z,63.41
2022-08-19T14:36:25.375Z,63.48
2022-08-19T14:39:28.370Z,63.52
2022-08-19T14:42:31.412Z,63.53
2022-08-19T14:45:37.070Z,63.38
2022-08-19T14:48:41.479Z,63.45
2022-08-19T14:51:47.796Z,63.57
2022-08-19T14:54:50.977Z,63.54
2022-08-19T14:57:54.484Z,63.54
2022-08-19T15:00:57.998Z,63.31
2022-08-19T15:04:01.017Z,63.17
2022-08-19T15:07:06.181Z,63.24
2022-08-19T15:10:10.921Z,62.93
2022-08-19T15:13:13.982Z,63.19
2022-08-19T15:16:18.119Z,62.99
2022-08-19T15:19:21.896Z,62.96
2022-08-19T15:22:26.238Z,63.02
2022-08-19T15:25:29.827Z,63.13
2022-08-19T15:28:33.497Z,63.13
2022-08-19T15:31:38.233Z,62.91
2022-08-19T15:34:41.962Z,62.89
2022-08-19T15:37:46.417Z,62.73
2022-08-19T15:40:50.873Z,62.86
2022-08-19T15:43:56.943Z,62.96
2022-08-19T15:46:59.983Z,62.87
2022-08-19T15:50:05.942Z,62.64
2022-08-19T15:53:12.043Z,62.59
2022-08-19T15:56:16.346Z,62.80
2022-08-19T15:59:36.765Z,62.70
2022-08-19T16:03:07.106Z,62.65
2022-08-19T16:06:29.129Z,62.82
2022-08-19T16:09:34.866Z,62.73
2022-08-19T16:12:39.182Z,62.80
2022-08-19T16:15:44.668Z,62.80
2022-08-19T16:18:48.335Z,62.65
2022-08-19T16:21:53.553Z,62.57
2022-08-19T16:24:58.395Z,62.56
2022-08-19T16:28:07.718Z,62.46
2022-08-19T16:31:12.274Z,62.48
2022-08-19T16:34:15.919Z,62.47
2022-08-19T16:37:19.454Z,62.46
2022-08-19T16:40:25.419Z,62.43
2022-08-19T16:43:30.590Z,62.27
2022-08-19T16:46:33.599Z,62.17
2022-08-19T16:49:54.007Z,62.15
2022-08-19T16:52:58.961Z,62.03
2022-08-19T16:56:03.503Z,62.08
2022-08-19T16:59:06.626Z,62.02
2022-08-19T17:02:09.729Z,62.08
2022-08-19T17:05:13.363Z,62.00
2022-08-19T17:08:17.845Z,62.08
2022-08-19T17:11:24.383Z,62.19
2022-08-19T17:14:27.369Z,62.23
2022-08-19T17:17:30.645Z,62.06
2022-08-19T17:20:34.561Z,62.18
2022-08-19T17:23:43.126Z,62.12
2022-08-19T17:26:48.153Z,62.12
2022-08-19T17:29:51.149Z,62.00
2022-08-19T17:32:54.046Z,62.09
2022-08-19T17:35:56.986Z,61.99
2022-08-19T17:39:02.587Z,62.07
2022-08-19T17:42:08.259Z,62.00
2022-08-19T17:45:12.436Z,62.15
2022-08-19T17:48:15.591Z,62.12
2022-08-19T17:51:22.298Z,62.28
2022-08-19T17:54:25.463Z,62.02
2022-08-19T17:57:38.014Z,62.17
2022-08-19T18:00:52.707Z,62.23
2022-08-19T18:03:57.236Z,62.14
2022-08-19T18:07:04.222Z,62.31
2022-08-19T18:10:08.251Z,62.26
2022-08-19T18:13:17.830Z,62.27
2022-08-19T18:16:22.177Z,62.25
2022-08-19T18:19:25.558Z,62.13
2022-08-19T18:22:36.587Z,62.18
2022-08-19T18:25:43.553Z,62.35
2022-08-19T18:28:50.052Z,62.23
2022-08-19T18:31:57.829Z,62.37
2022-08-19T18:35:01.968Z,62.36
2022-08-19T18:38:25.677Z,62.27
2022-08-19T18:41:42.897Z,62.20
2022-08-19T18:45:05.061Z,62.37
2022-08-19T18:48:27.809Z,62.37
2022-08-19T18:51:31.790Z,62.56
2022-08-19T18:54:35.656Z,62.36
2022-08-19T18:57:38.580Z,62.28
2022-08-19T19:00:44.022Z,62.32
2022-08-19T19:03:52.914Z,62.34
2022-08-19T19:06:56.341Z,62.32
2022-08-19T19:09:59.295Z,62.38
2022-08-19T19:13:02.365Z,62.31
2022-08-19T19:16:10.073Z,62.32
2022-08-19T19:19:14.409Z,62.26
2022-08-19T19:22:24.366Z,62.25
2022-08-19T19:25:27.806Z,62.19
2022-08-19T19:28:51.560Z,62.19
2022-08-19T19:31:56.942Z,62.21
2022-08-19T19:35:00.529Z,62.24
2022-08-19T19:38:03.570Z,62.26
2022-08-19T19:41:06.847Z,62.21
2022-08-19T19:44:30.630Z,62.28
2022-08-19T19:47:35.549Z,62.19
2022-08-19T19:50:38.522Z,62.21
2022-08-19T19:53:42.441Z,62.24
2022-08-19T19:56:46.034Z,62.25
2022-08-19T19:59:51.397Z,62.08
2022-08-19T20:02:56.289Z,62.21
2022-08-19T20:06:00.280Z,62.04
2022-08-19T20:09:10.538Z,62.05
2022-08-19T20:12:13.692Z,62.15
2022-08-19T20:15:16.646Z,62.12
2022-08-19T20:18:21.100Z,62.12
2022-08-19T20:21:24.633Z,62.05
2022-08-19T20:24:35.185Z,62.17
2022-08-19T20:27:39.985Z,62.15
2022-08-19T20:30:46.454Z,62.09
2022-08-19T20:33:52.546Z,62.09
2022-08-19T20:36:55.667Z,62.01
2022-08-19T20:39:58.868Z,62.02
2022-08-19T20:43:02.037Z,61.79
2022-08-19T20:46:05.355Z,62.02
2022-08-19T20:49:10.271Z,61.97
2022-08-19T20:52:13.800Z,62.04
2022-08-19T20:55:16.947Z,62.02
2022-08-19T20:58:24.703Z,62.10
2022-08-19T21:01:27.828Z,62.07
2022-08-19T21:04:33.084Z,62.06
2022-08-19T21:07:39.009Z,61.93
2022-08-19T21:10:44.580Z,62.07
2022-08-19T21:13:48.352Z,61.90
2022-08-19T21:16:51.505Z,62.07
2022-08-19T21:19:55.948Z,62.05
2022-08-19T21:22:58.965Z,61.96
2022-08-19T21:26:02.565Z,61.90
2022-08-19T21:29:05.580Z,61.59
2022-08-19T21:32:11.116Z,61.76
2022-08-19T21:35:19.631Z,61.90
2022-08-19T21:38:22.710Z,61.89
2022-08-19T21:41:25.731Z,61.97
2022-08-19T21:44:28.763Z,61.91
2022-08-19T21:47:31.820Z,61.95
2022-08-19T21:50:36.249Z,62.04
2022-08-19T21:53:39.265Z,61.94
2022-08-19T21:56:42.725Z,62.02
2022-08-19T21:59:45.865Z,61.98
2022-08-19T22:02:49.143Z,61.82
2022-08-19T22:05:53.997Z,61.93
2022-08-19T22:08:57.168Z,61.90
2022-08-19T22:12:00.254Z,61.80
2022-08-19T22:15:03.399Z,61.90
2022-08-19T22:18:06.574Z,61.73
2022-08-19T22:21:12.170Z,61.81
2022-08-19T22:24:15.482Z,61.74
2022-08-19T22:27:18.982Z,61.79
2022-08-19T22:30:23.619Z,61.72
2022-08-19T22:33:27.683Z,61.76
2022-08-19T22:36:32.530Z,61.75
2022-08-19T22:39:35.852Z,61.81
2022-08-19T22:42:39.110Z,61.57
2022-08-19T22:45:42.493Z,61.66
2022-08-19T22:48:45.766Z,61.74
2022-08-19T22:52:07.902Z,61.66
2022-08-19T22:55:11.511Z,61.68
2022-08-19T22:58:28.111Z,61.67
2022-08-19T23:01:31.647Z,61.69
2022-08-19T23:04:35.235Z,61.38
2022-08-19T23:07:39.847Z,61.60
2022-08-19T23:10:42.958Z,62.54
2022-08-19T23:13:46.656Z,62.26
2022-08-19T23:16:51.376Z,61.93
2022-08-19T23:19:54.550Z,61.72
2022-08-19T23:22:59.069Z,62.18
2022-08-19T23:26:02.030Z,61.93
2022-08-19T23:29:23.562Z,61.64
2022-08-19T23:32:26.692Z,61.64
2022-08-19T23:35:34.946Z,61.55
2022-08-19T23:38:41.042Z,61.66
2022-08-19T23:41:44.144Z,61.72
2022-08-19T23:44:52.172Z,61.61
2022-08-19T23:47:56.160Z,61.52
2022-08-19T23:50:59.844Z,61.48
2022-08-19T23:54:04.445Z,61.46
2022-08-19T23:57:14.066Z,61.40
